Time;durP1;ratioP1;P1;durP2;ratioP2;P2;SDS_P1;SDS_P2;PMS_P1;PMS_P2;Temp;Humidity;BMP_temperature;BMP_pressure;BME280_temperature;BME280_humidity;BME280_pressure;Samples;Min_cycle;Max_cycle;Signal;HPM_P1;HPM_P2
2021/05/09 00:02:12;;;;;;;6.77;4.90;;;;;;;;;;5030409;28;20248;-69
2021/05/09 00:04:56;;;;;;;6.60;4.80;;;;;;;;;;5030549;28;20294;-69
2021/05/09 00:07:41;;;;;;;6.90;4.90;;;;;;;;;;5030575;28;20225;-69
2021/05/09 00:10:26;;;;;;;8.60;5.70;;;;;;;;;;5031481;28;20233;-69
2021/05/09 00:13:10;;;;;;;7.90;5.37;;;;;;;;;;5034772;28;20201;-69
2021/05/09 00:15:55;;;;;;;8.43;5.30;;;;;;;;;;5034672;28;20228;-69
2021/05/09 00:18:39;;;;;;;8.23;5.23;;;;;;;;;;5034565;28;20225;-69
2021/05/09 00:21:24;;;;;;;7.97;5.00;;;;;;;;;;5034149;28;20205;-69
2021/05/09 00:24:10;;;;;;;9.07;5.43;;;;;;;;;;5034255;28;20209;-69
2021/05/09 00:26:54;;;;;;;11.33;5.37;;;;;;;;;;5033883;28;20888;-69
2021/05/09 00:29:38;;;;;;;12.47;6.20;;;;;;;;;;5033515;28;20287;-69
2021/05/09 00:32:26;;;;;;;8.70;5.70;;;;;;;;;;5034437;28;20212;-69
2021/05/09 00:35:11;;;;;;;9.10;5.87;;;;;;;;;;5034072;28;20251;-69
2021/05/09 00:37:55;;;;;;;9.30;5.30;;;;;;;;;;5034228;28;20204;-69
2021/05/09 00:40:40;;;;;;;9.97;5.80;;;;;;;;;;5033584;28;20201;-69
2021/05/09 00:43:25;;;;;;;9.50;5.70;;;;;;;;;;5033948;28;20252;-69
2021/05/09 00:46:09;;;;;;;9.83;5.87;;;;;;;;;;5033678;28;20715;-68
2021/05/09 00:48:54;;;;;;;8.47;5.80;;;;;;;;;;5033752;28;20249;-69
2021/05/09 00:51:38;;;;;;;7.33;5.67;;;;;;;;;;5033534;28;20244;-69
2021/05/09 00:54:25;;;;;;;8.20;5.67;;;;;;;;;;5033713;28;20687;-69
2021/05/09 00:57:12;;;;;;;9.73;6.17;;;;;;;;;;5033344;28;20201;-69
2021/05/09 00:59:58;;;;;;;6.77;5.60;;;;;;;;;;5033083;28;20229;-69
2021/05/09 01:02:43;;;;;;;6.13;5.53;;;;;;;;;;5033795;28;20597;-69
2021/05/09 01:05:28;;;;;;;7.27;5.80;;;;;;;;;;5032957;28;21055;-69
2021/05/09 01:08:12;;;;;;;10.87;5.43;;;;;;;;;;5033329;28;20232;-68
2021/05/09 01:10:56;;;;;;;6.53;5.63;;;;;;;;;;5032891;28;20817;-69
2021/05/09 01:13:42;;;;;;;7.70;5.20;;;;;;;;;;5033406;28;20213;-68
2021/05/09 01:16:26;;;;;;;6.33;5.20;;;;;;;;;;5033405;28;20243;-69
2021/05/09 01:19:11;;;;;;;6.77;5.23;;;;;;;;;;5033108;28;20264;-69
2021/05/09 01:21:56;;;;;;;5.80;5.13;;;;;;;;;;5032613;28;20255;-69
2021/05/09 01:24:41;;;;;;;6.17;5.30;;;;;;;;;;5033485;28;20332;-69
2021/05/09 01:27:25;;;;;;;5.10;4.67;;;;;;;;;;5033155;28;20209;-69
2021/05/09 01:30:12;;;;;;;6.07;4.70;;;;;;;;;;5032867;28;20224;-69
2021/05/09 01:32:56;;;;;;;5.80;5.20;;;;;;;;;;5032916;28;20205;-69
2021/05/09 01:35:41;;;;;;;8.03;5.10;;;;;;;;;;5032980;28;20216;-69
2021/05/09 01:38:26;;;;;;;5.97;5.37;;;;;;;;;;5032657;28;20220;-69
2021/05/09 01:41:11;;;;;;;6.53;5.30;;;;;;;;;;5032439;28;20225;-69
2021/05/09 01:43:55;;;;;;;5.87;5.00;;;;;;;;;;5024752;28;20231;-69
2021/05/09 01:46:43;;;;;;;6.83;5.27;;;;;;;;;;5031843;28;20748;-69
2021/05/09 01:49:27;;;;;;;6.80;5.13;;;;;;;;;;5031373;28;20240;-69
2021/05/09 01:52:13;;;;;;;5.40;4.90;;;;;;;;;;5025545;28;20775;-69
2021/05/09 01:54:59;;;;;;;5.93;5.30;;;;;;;;;;5025851;28;20215;-69
2021/05/09 01:57:44;;;;;;;6.57;5.17;;;;;;;;;;5031429;28;20213;-68
2021/05/09 02:00:28;;;;;;;6.70;5.40;;;;;;;;;;5031275;28;20207;-69
2021/05/09 02:03:13;;;;;;;6.67;5.33;;;;;;;;;;5031925;28;20264;-69
2021/05/09 02:05:57;;;;;;;6.53;5.70;;;;;;;;;;5024562;28;20271;-69
2021/05/09 02:08:41;;;;;;;7.23;5.43;;;;;;;;;;5031851;28;20782;-69
2021/05/09 02:11:27;;;;;;;6.27;5.13;;;;;;;;;;5031150;28;20207;-69
2021/05/09 02:14:11;;;;;;;6.10;5.50;;;;;;;;;;5025971;28;20208;-69
2021/05/09 02:16:56;;;;;;;8.80;6.07;;;;;;;;;;5032000;28;20249;-69
2021/05/09 02:19:40;;;;;;;8.03;6.10;;;;;;;;;;5030705;28;20228;-70
2021/05/09 02:22:25;;;;;;;6.40;5.87;;;;;;;;;;5031451;28;20211;-69
2021/05/09 02:25:10;;;;;;;6.30;5.70;;;;;;;;;;5026848;28;20210;-69
2021/05/09 02:27:56;;;;;;;6.77;5.87;;;;;;;;;;5030342;28;20263;-70
2021/05/09 02:30:40;;;;;;;7.20;6.60;;;;;;;;;;5030684;28;20264;-69
2021/05/09 02:33:24;;;;;;;8.93;6.37;;;;;;;;;;5031302;28;20200;-69
2021/05/09 02:36:09;;;;;;;7.00;6.30;;;;;;;;;;5024221;28;20320;-69
2021/05/09 02:38:53;;;;;;;7.50;6.10;;;;;;;;;;5031011;28;20228;-69
2021/05/09 02:41:38;;;;;;;7.53;6.10;;;;;;;;;;5029918;28;20408;-69
2021/05/09 02:44:23;;;;;;;8.23;6.80;;;;;;;;;;5027185;28;20439;-69
2021/05/09 02:47:08;;;;;;;12.90;6.83;;;;;;;;;;5013237;28;20529;-69
2021/05/09 02:49:52;;;;;;;7.20;6.47;;;;;;;;;;5011167;28;20283;-69
2021/05/09 02:52:37;;;;;;;7.83;7.00;;;;;;;;;;5011772;28;20618;-68
2021/05/09 02:55:22;;;;;;;8.07;6.77;;;;;;;;;;5011840;28;20255;-69
2021/05/09 02:58:06;;;;;;;6.67;6.07;;;;;;;;;;5011584;28;20222;-69
2021/05/09 03:00:52;;;;;;;8.97;6.40;;;;;;;;;;5011467;28;20204;-69
2021/05/09 03:03:38;;;;;;;7.10;6.40;;;;;;;;;;5011684;28;20268;-69
2021/05/09 03:06:25;;;;;;;7.70;6.13;;;;;;;;;;5011510;28;20272;-69
2021/05/09 03:09:12;;;;;;;7.17;6.47;;;;;;;;;;5011690;28;20568;-69
2021/05/09 03:11:57;;;;;;;7.33;5.97;;;;;;;;;;5011403;28;20207;-69
2021/05/09 03:14:41;;;;;;;8.30;6.53;;;;;;;;;;5011818;28;20230;-69
2021/05/09 03:17:27;;;;;;;6.90;6.20;;;;;;;;;;5011484;28;20692;-69
2021/05/09 03:20:11;;;;;;;7.23;6.10;;;;;;;;;;5010827;28;20284;-69
2021/05/09 03:22:56;;;;;;;7.40;6.30;;;;;;;;;;5011046;28;20211;-69
2021/05/09 03:25:40;;;;;;;8.43;6.53;;;;;;;;;;5011494;28;20271;-69
2021/05/09 03:28:24;;;;;;;6.80;6.13;;;;;;;;;;5011067;28;20239;-68
2021/05/09 03:31:09;;;;;;;7.47;6.30;;;;;;;;;;5011189;28;20563;-69
2021/05/09 03:33:54;;;;;;;6.13;5.60;;;;;;;;;;5011280;28;20213;-69
2021/05/09 03:36:41;;;;;;;7.33;6.50;;;;;;;;;;5010984;28;20201;-69
2021/05/09 03:39:25;;;;;;;6.93;6.33;;;;;;;;;;5010724;28;20275;-69
2021/05/09 03:42:10;;;;;;;8.67;6.63;;;;;;;;;;5010918;28;20691;-69
2021/05/09 03:44:54;;;;;;;6.73;6.13;;;;;;;;;;5010897;28;20680;-69
2021/05/09 03:47:39;;;;;;;6.73;6.07;;;;;;;;;;5011357;28;20217;-69
2021/05/09 03:50:24;;;;;;;7.23;6.53;;;;;;;;;;5010483;28;20786;-69
2021/05/09 03:53:08;;;;;;;8.93;6.70;;;;;;;;;;5010771;28;20632;-68
2021/05/09 03:55:53;;;;;;;7.10;6.50;;;;;;;;;;5010762;28;20458;-69
2021/05/09 03:58:37;;;;;;;7.77;6.70;;;;;;;;;;5010934;28;20228;-68
2021/05/09 04:01:22;;;;;;;7.40;6.40;;;;;;;;;;5010662;28;20208;-68
2021/05/09 04:04:07;;;;;;;7.30;6.50;;;;;;;;;;5011190;28;20624;-69
2021/05/09 04:06:52;;;;;;;7.90;6.77;;;;;;;;;;5010696;28;20715;-68
2021/05/09 04:09:37;;;;;;;7.70;7.03;;;;;;;;;;5010383;28;20222;-68
2021/05/09 04:12:21;;;;;;;8.00;6.17;;;;;;;;;;5010709;28;20221;-69
2021/05/09 04:15:06;;;;;;;7.00;6.40;;;;;;;;;;5010703;28;20202;-69
2021/05/09 04:17:50;;;;;;;9.63;6.67;;;;;;;;;;5010759;28;20242;-69
2021/05/09 04:20:35;;;;;;;7.20;6.50;;;;;;;;;;5010156;28;20583;-68
2021/05/09 04:23:21;;;;;;;8.10;7.30;;;;;;;;;;5010154;28;20416;-69
2021/05/09 04:26:05;;;;;;;7.63;6.93;;;;;;;;;;5010588;28;20277;-69
2021/05/09 04:28:50;;;;;;;7.73;7.00;;;;;;;;;;5010759;28;20248;-69
2021/05/09 04:31:34;;;;;;;8.40;6.57;;;;;;;;;;5010331;28;20600;-69
2021/05/09 04:34:19;;;;;;;7.70;6.97;;;;;;;;;;5010896;28;20570;-69
2021/05/09 04:37:03;;;;;;;7.50;6.80;;;;;;;;;;5010476;28;20206;-69
2021/05/09 04:39:50;;;;;;;7.50;6.80;;;;;;;;;;5010401;28;20266;-68
2021/05/09 04:42:34;;;;;;;7.73;6.97;;;;;;;;;;5010834;28;20562;-68
2021/05/09 04:45:19;;;;;;;7.70;6.67;;;;;;;;;;5010308;28;20645;-69
2021/05/09 04:48:04;;;;;;;6.80;6.17;;;;;;;;;;5010439;28;20229;-69
2021/05/09 04:50:49;;;;;;;6.17;5.60;;;;;;;;;;5009983;28;20253;-69
2021/05/09 04:53:33;;;;;;;6.73;6.13;;;;;;;;;;5010630;28;20586;-69
2021/05/09 04:56:19;;;;;;;7.37;6.40;;;;;;;;;;5010652;28;20264;-69
2021/05/09 04:59:04;;;;;;;7.03;6.33;;;;;;;;;;5013457;28;20269;-69
2021/05/09 05:01:49;;;;;;;6.93;6.33;;;;;;;;;;5014016;28;20206;-69
2021/05/09 05:04:37;;;;;;;7.10;6.50;;;;;;;;;;5013931;28;20229;-69
2021/05/09 05:07:22;;;;;;;7.73;6.10;;;;;;;;;;5013161;28;20245;-69
2021/05/09 05:10:14;;;;;;;6.47;5.83;;;;;;;;;;5013234;28;20576;-69
2021/05/09 05:13:00;;;;;;;6.87;6.17;;;;;;;;;;5013129;28;20532;-69
2021/05/09 05:15:46;;;;;;;6.70;6.10;;;;;;;;;;5013612;28;20219;-69
2021/05/09 05:18:30;;;;;;;6.73;5.97;;;;;;;;;;5013483;28;20250;-69
2021/05/09 05:21:15;;;;;;;6.40;5.80;;;;;;;;;;5013013;28;20494;-69
2021/05/09 05:23:59;;;;;;;6.37;5.77;;;;;;;;;;5013473;28;20206;-69
2021/05/09 05:26:44;;;;;;;7.33;6.40;;;;;;;;;;5013321;28;20709;-69
2021/05/09 05:29:29;;;;;;;6.70;6.00;;;;;;;;;;5012790;28;20758;-69
2021/05/09 05:32:14;;;;;;;6.10;5.50;;;;;;;;;;5013384;28;20288;-69
2021/05/09 05:34:58;;;;;;;6.07;5.13;;;;;;;;;;5013625;28;20249;-69
2021/05/09 05:37:43;;;;;;;6.40;5.43;;;;;;;;;;5020649;28;20226;-69
2021/05/09 05:40:27;;;;;;;6.93;5.37;;;;;;;;;;5030566;28;20244;-69
2021/05/09 05:43:14;;;;;;;6.07;5.30;;;;;;;;;;5033129;28;20194;-69
2021/05/09 05:46:00;;;;;;;6.37;5.73;;;;;;;;;;5032040;28;20222;-69
2021/05/09 05:48:48;;;;;;;6.95;5.85;;;;;;;;;;5031141;28;20825;-69
2021/05/09 05:51:33;;;;;;;7.07;5.70;;;;;;;;;;5032409;28;20201;-69
2021/05/09 05:54:20;;;;;;;6.33;5.50;;;;;;;;;;5032913;28;20203;-69
2021/05/09 05:57:05;;;;;;;6.43;5.93;;;;;;;;;;5032507;28;20202;-69
2021/05/09 05:59:49;;;;;;;6.10;5.43;;;;;;;;;;5032137;28;20202;-69
2021/05/09 06:02:34;;;;;;;5.97;5.47;;;;;;;;;;5031895;28;20413;-69
2021/05/09 06:05:19;;;;;;;5.90;5.30;;;;;;;;;;5032267;28;20198;-69
2021/05/09 06:08:05;;;;;;;5.83;5.17;;;;;;;;;;5031965;28;20226;-69
2021/05/09 06:10:50;;;;;;;4.63;4.23;;;;;;;;;;5031568;28;20206;-69
2021/05/09 06:13:37;;;;;;;5.17;4.53;;;;;;;;;;5031343;28;20233;-69
2021/05/09 06:16:24;;;;;;;5.63;5.13;;;;;;;;;;5031352;28;20198;-69
2021/05/09 06:19:10;;;;;;;5.30;4.53;;;;;;;;;;5032018;28;20260;-69
2021/05/09 06:21:54;;;;;;;6.80;4.70;;;;;;;;;;5032329;28;20229;-69
2021/05/09 06:24:39;;;;;;;4.60;4.30;;;;;;;;;;5032269;28;20264;-69
2021/05/09 06:27:26;;;;;;;5.20;4.43;;;;;;;;;;5031971;28;20238;-69
2021/05/09 06:30:11;;;;;;;5.10;4.60;;;;;;;;;;5031698;28;20882;-69
2021/05/09 06:32:56;;;;;;;4.90;4.10;;;;;;;;;;5032002;28;20205;-69
2021/05/09 06:35:42;;;;;;;4.20;3.80;;;;;;;;;;5031479;28;20407;-69
2021/05/09 06:38:26;;;;;;;4.70;4.20;;;;;;;;;;5032117;28;20293;-69
2021/05/09 06:41:11;;;;;;;4.60;4.20;;;;;;;;;;5031685;28;20228;-69
2021/05/09 06:43:57;;;;;;;4.10;3.80;;;;;;;;;;5031262;28;20206;-67
2021/05/09 06:46:42;;;;;;;4.33;3.63;;;;;;;;;;5031076;28;20233;-67
2021/05/09 06:49:28;;;;;;;3.83;3.60;;;;;;;;;;5030450;28;20269;-69
2021/05/09 06:52:14;;;;;;;4.47;3.90;;;;;;;;;;5030470;28;20401;-68
2021/05/09 06:55:01;;;;;;;3.83;3.50;;;;;;;;;;5030366;28;20256;-70
2021/05/09 06:57:47;;;;;;;3.60;3.30;;;;;;;;;;5025390;28;20232;-71
2021/05/09 07:00:32;;;;;;;3.60;3.30;;;;;;;;;;5030702;28;20305;-70
2021/05/09 07:03:16;;;;;;;3.67;3.20;;;;;;;;;;5031212;28;20214;-69
2021/05/09 07:06:01;;;;;;;3.37;3.17;;;;;;;;;;5031035;28;20222;-71
2021/05/09 07:08:49;;;;;;;4.00;3.70;;;;;;;;;;5031278;28;20708;-72
2021/05/09 07:11:33;;;;;;;5.83;5.13;;;;;;;;;;5030304;28;20206;-71
2021/05/09 07:14:19;;;;;;;6.30;5.00;;;;;;;;;;5030918;28;20203;-71
2021/05/09 07:17:04;;;;;;;3.27;3.00;;;;;;;;;;5031096;28;20564;-72
2021/05/09 07:19:48;;;;;;;4.20;2.60;;;;;;;;;;5029711;28;20198;-71
2021/05/09 07:22:37;;;;;;;2.60;2.40;;;;;;;;;;5031111;28;20209;-72
2021/05/09 07:25:25;;;;;;;2.87;2.67;;;;;;;;;;5031240;28;20204;-71
2021/05/09 07:28:10;;;;;;;2.80;2.53;;;;;;;;;;5030560;28;20573;-70
2021/05/09 07:31:02;;;;;;;2.90;2.70;;;;;;;;;;5030663;28;20717;-71
2021/05/09 07:33:47;;;;;;;2.70;2.50;;;;;;;;;;5030715;28;20251;-71
2021/05/09 07:36:31;;;;;;;2.97;2.67;;;;;;;;;;5030751;28;20223;-71
2021/05/09 07:39:16;;;;;;;3.00;2.60;;;;;;;;;;5030357;28;20470;-71
2021/05/09 07:42:01;;;;;;;3.40;2.53;;;;;;;;;;5030815;28;20261;-71
2021/05/09 07:44:46;;;;;;;3.80;2.70;;;;;;;;;;5030515;28;20220;-70
2021/05/09 07:47:30;;;;;;;2.37;2.20;;;;;;;;;;5030395;28;20779;-71
2021/05/09 07:50:15;;;;;;;2.30;2.10;;;;;;;;;;5030099;28;20206;-70
2021/05/09 07:53:00;;;;;;;4.50;2.60;;;;;;;;;;5030682;28;20222;-72
2021/05/09 07:55:47;;;;;;;3.07;2.63;;;;;;;;;;5030335;28;20213;-72
2021/05/09 07:58:33;;;;;;;4.07;2.80;;;;;;;;;;5019447;28;20221;-72
2021/05/09 08:01:17;;;;;;;2.70;2.50;;;;;;;;;;5021030;28;20240;-72
2021/05/09 08:04:04;;;;;;;2.57;2.37;;;;;;;;;;5018415;28;20337;-71
2021/05/09 08:06:49;;;;;;;3.33;3.00;;;;;;;;;;5030097;28;20769;-71
2021/05/09 08:09:33;;;;;;;4.33;2.93;;;;;;;;;;5030034;28;20206;-71
2021/05/09 08:12:20;;;;;;;2.70;2.50;;;;;;;;;;5029136;28;20470;-72
2021/05/09 08:15:06;;;;;;;2.97;2.70;;;;;;;;;;5030528;28;20212;-72
2021/05/09 08:17:59;;;;;;;3.40;3.10;;;;;;;;;;5010708;28;20224;-71
2021/05/09 08:20:43;;;;;;;4.77;3.30;;;;;;;;;;5015956;28;20269;-72
2021/05/09 08:23:30;;;;;;;3.83;3.33;;;;;;;;;;5030262;28;20662;-72
2021/05/09 08:26:15;;;;;;;3.40;3.10;;;;;;;;;;5029645;28;20220;-71
2021/05/09 08:29:05;;;;;;;3.80;3.40;;;;;;;;;;5029142;28;20418;-72
2021/05/09 08:31:51;;;;;;;5.53;3.23;;;;;;;;;;5031644;28;20252;-72
2021/05/09 08:34:35;;;;;;;4.40;3.20;;;;;;;;;;5033877;28;20213;-71
2021/05/09 08:37:20;;;;;;;3.00;2.80;;;;;;;;;;5033740;28;20222;-71
2021/05/09 08:40:05;;;;;;;3.00;2.80;;;;;;;;;;5032945;28;20196;-72
2021/05/09 08:42:51;;;;;;;3.10;2.60;;;;;;;;;;5032754;28;20203;-72
2021/05/09 08:45:38;;;;;;;3.03;2.80;;;;;;;;;;5033857;28;20244;-71
2021/05/09 08:48:25;;;;;;;3.73;2.80;;;;;;;;;;5033346;28;20742;-72
2021/05/09 08:51:09;;;;;;;3.03;2.40;;;;;;;;;;5032789;28;20221;-70
2021/05/09 08:53:57;;;;;;;2.80;2.60;;;;;;;;;;5013930;28;20234;-69
2021/05/09 08:56:44;;;;;;;2.77;2.50;;;;;;;;;;5029539;28;20256;-72
2021/05/09 08:59:29;;;;;;;2.63;2.43;;;;;;;;;;5033106;28;20233;-70
2021/05/09 09:02:14;;;;;;;2.78;2.40;;;;;;;;;;5032902;28;20469;-71
2021/05/09 09:05:00;;;;;;;2.50;2.30;;;;;;;;;;5033174;28;20214;-71
2021/05/09 09:07:48;;;;;;;3.20;2.40;;;;;;;;;;5032914;28;20325;-71
2021/05/09 09:10:34;;;;;;;2.87;2.23;;;;;;;;;;5032152;28;20201;-72
2021/05/09 09:13:20;;;;;;;2.83;2.43;;;;;;;;;;5013626;28;20274;-72
2021/05/09 09:16:06;;;;;;;3.83;2.40;;;;;;;;;;5013723;28;20250;-71
2021/05/09 09:18:52;;;;;;;2.92;2.53;;;;;;;;;;5012697;28;20444;-71
2021/05/09 09:21:38;;;;;;;2.60;2.40;;;;;;;;;;5017254;28;20194;-71
2021/05/09 09:24:26;;;;;;;3.73;2.70;;;;;;;;;;5032863;28;20265;-71
2021/05/09 09:27:11;;;;;;;2.70;2.50;;;;;;;;;;5029361;28;20248;-71
2021/05/09 09:29:58;;;;;;;2.90;2.67;;;;;;;;;;5012855;28;20329;-71
2021/05/09 09:33:03;;;;;;;4.03;2.73;;;;;;;;;;5022209;28;20206;-72
2021/05/09 09:35:48;;;;;;;2.87;2.40;;;;;;;;;;5033050;28;20583;-72
2021/05/09 09:38:34;;;;;;;3.00;2.70;;;;;;;;;;5032531;28;20284;-73
2021/05/09 09:41:20;;;;;;;3.03;2.80;;;;;;;;;;5032598;28;20260;-73
2021/05/09 09:44:06;;;;;;;3.57;2.80;;;;;;;;;;5012160;28;20298;-73
2021/05/09 09:46:55;;;;;;;3.37;2.63;;;;;;;;;;5016160;28;20266;-73
2021/05/09 09:49:40;;;;;;;4.43;2.67;;;;;;;;;;5032123;28;20741;-73
2021/05/09 09:52:29;;;;;;;3.65;3.15;;;;;;;;;;5028586;28;20989;-72
2021/05/09 09:55:14;;;;;;;3.43;3.13;;;;;;;;;;5012715;28;20210;-73
2021/05/09 09:58:05;;;;;;;3.70;3.20;;;;;;;;;;5029824;28;20633;-70
2021/05/09 10:00:50;;;;;;;3.73;3.20;;;;;;;;;;5032057;28;20269;-70
2021/05/09 10:03:34;;;;;;;4.33;3.53;;;;;;;;;;5031760;28;20673;-72
2021/05/09 10:06:20;;;;;;;7.50;3.87;;;;;;;;;;5032096;28;20706;-70
2021/05/09 10:09:05;;;;;;;4.47;4.07;;;;;;;;;;5031378;28;20412;-72
2021/05/09 10:11:53;;;;;;;4.40;4.00;;;;;;;;;;5032481;28;20225;-72
2021/05/09 10:14:38;;;;;;;4.77;4.00;;;;;;;;;;5031149;28;20272;-72
2021/05/09 10:17:23;;;;;;;4.10;3.80;;;;;;;;;;5031520;28;20332;-72
2021/05/09 10:20:10;;;;;;;4.00;3.60;;;;;;;;;;5031714;28;20241;-71
2021/05/09 10:23:03;;;;;;;6.17;4.17;;;;;;;;;;5031210;28;20206;-71
2021/05/09 10:25:50;;;;;;;3.80;3.50;;;;;;;;;;5032014;28;20199;-72
2021/05/09 10:28:39;;;;;;;4.07;3.77;;;;;;;;;;5031703;28;20701;-72
2021/05/09 10:31:26;;;;;;;4.10;3.70;;;;;;;;;;5031620;28;20257;-72
2021/05/09 10:34:18;;;;;;;5.07;3.40;;;;;;;;;;5030399;28;20601;-72
2021/05/09 10:37:06;;;;;;;5.37;3.57;;;;;;;;;;5028976;28;20226;-72
2021/05/09 10:40:05;;;;;;;9.20;3.47;;;;;;;;;;5028323;28;20573;-72
2021/05/09 10:43:11;;;;;;;4.27;3.30;;;;;;;;;;5022392;28;20253;-72
2021/05/09 10:45:57;;;;;;;3.77;3.47;;;;;;;;;;5030898;28;20239;-72
2021/05/09 10:48:44;;;;;;;3.77;3.40;;;;;;;;;;5031195;28;20215;-71
2021/05/09 10:51:30;;;;;;;4.53;3.50;;;;;;;;;;5031135;28;20592;-71
2021/05/09 10:54:19;;;;;;;4.43;3.90;;;;;;;;;;5031347;28;20694;-72
2021/05/09 10:57:03;;;;;;;5.23;3.50;;;;;;;;;;5030791;28;20234;-71
2021/05/09 10:59:57;;;;;;;6.77;3.57;;;;;;;;;;5030601;28;20544;-72
2021/05/09 11:02:43;;;;;;;4.43;3.70;;;;;;;;;;5029897;28;20477;-72
2021/05/09 11:05:42;;;;;;;5.70;3.73;;;;;;;;;;5031263;28;20256;-72
2021/05/09 11:08:52;;;;;;;6.50;3.60;;;;;;;;;;5031290;28;20245;-72
2021/05/09 11:11:57;;;;;;;4.00;3.43;;;;;;;;;;5031111;28;20612;-72
2021/05/09 11:14:41;;;;;;;5.23;3.27;;;;;;;;;;5030997;28;20198;-71
2021/05/09 11:17:32;;;;;;;3.50;3.20;;;;;;;;;;5030918;28;20764;-71
2021/05/09 11:20:17;;;;;;;4.10;3.70;;;;;;;;;;5030554;28;20198;-71
2021/05/09 11:23:02;;;;;;;4.00;3.60;;;;;;;;;;5031089;28;20514;-71
2021/05/09 11:25:52;;;;;;;5.57;3.63;;;;;;;;;;5030664;28;20206;-71
2021/05/09 11:28:37;;;;;;;5.27;3.13;;;;;;;;;;5010859;28;20215;-71
2021/05/09 11:31:29;;;;;;;5.85;3.28;;;;;;;;;;5010101;28;20506;-71
2021/05/09 11:34:14;;;;;;;3.90;3.10;;;;;;;;;;5010925;28;20534;-71
2021/05/09 11:36:59;;;;;;;4.97;2.93;;;;;;;;;;5010912;28;20233;-70
2021/05/09 11:39:44;;;;;;;5.17;3.30;;;;;;;;;;5010433;28;20263;-71
2021/05/09 11:42:29;;;;;;;7.57;3.43;;;;;;;;;;5010923;28;20202;-70
2021/05/09 11:45:14;;;;;;;4.80;3.70;;;;;;;;;;5013072;28;20674;-71
2021/05/09 11:47:58;;;;;;;4.70;3.47;;;;;;;;;;5029176;28;20973;-71
2021/05/09 11:50:43;;;;;;;4.67;3.60;;;;;;;;;;5029813;28;20641;-71
2021/05/09 11:53:28;;;;;;;3.90;3.40;;;;;;;;;;5030699;28;20208;-71
2021/05/09 11:56:13;;;;;;;4.07;3.20;;;;;;;;;;5030796;28;20232;-71
2021/05/09 11:58:57;;;;;;;5.07;3.17;;;;;;;;;;5025608;28;20212;-71
2021/05/09 12:01:43;;;;;;;4.20;3.60;;;;;;;;;;5010763;28;20199;-71
2021/05/09 12:04:31;;;;;;;4.57;3.17;;;;;;;;;;5029250;28;20226;-71
2021/05/09 12:07:16;;;;;;;4.73;3.33;;;;;;;;;;5033745;28;20699;-71
2021/05/09 12:10:03;;;;;;;5.80;4.73;;;;;;;;;;5034137;28;20260;-71
2021/05/09 12:12:48;;;;;;;4.00;3.60;;;;;;;;;;5034428;28;20205;-71
2021/05/09 12:15:33;;;;;;;5.03;3.80;;;;;;;;;;5034176;28;20372;-71
2021/05/09 12:18:27;;;;;;;5.07;3.47;;;;;;;;;;5034090;28;20256;-71
2021/05/09 12:21:12;;;;;;;6.67;4.20;;;;;;;;;;5034278;28;20218;-71
2021/05/09 12:24:01;;;;;;;4.43;4.03;;;;;;;;;;5018353;28;20210;-71
2021/05/09 12:26:56;;;;;;;3.90;3.57;;;;;;;;;;5015423;28;20661;-71
2021/05/09 12:29:44;;;;;;;4.40;3.70;;;;;;;;;;5013723;28;20618;-71
2021/05/09 12:32:34;;;;;;;4.57;3.80;;;;;;;;;;5033417;28;20264;-73
2021/05/09 12:35:21;;;;;;;3.53;3.23;;;;;;;;;;5033031;28;20206;-72
2021/05/09 12:38:08;;;;;;;5.43;3.40;;;;;;;;;;5033757;28;20249;-72
2021/05/09 12:41:04;;;;;;;4.13;3.17;;;;;;;;;;5033614;28;20253;-72
2021/05/09 12:43:53;;;;;;;5.17;3.33;;;;;;;;;;5033317;28;20669;-71
2021/05/09 12:46:38;;;;;;;5.93;3.20;;;;;;;;;;5028270;28;20241;-71
2021/05/09 12:49:28;;;;;;;4.03;2.90;;;;;;;;;;5033517;28;20209;-71
2021/05/09 12:52:13;;;;;;;3.50;2.90;;;;;;;;;;5013987;28;20226;-72
2021/05/09 12:55:01;;;;;;;3.37;3.17;;;;;;;;;;5020179;28;20206;-71
2021/05/09 12:57:46;;;;;;;5.17;2.90;;;;;;;;;;5033662;28;20207;-71
2021/05/09 13:00:31;;;;;;;3.17;2.87;;;;;;;;;;5022828;28;20260;-71
2021/05/09 13:03:16;;;;;;;3.20;2.83;;;;;;;;;;5033569;28;20221;-69
2021/05/09 13:06:00;;;;;;;4.33;2.73;;;;;;;;;;5033524;28;20710;-68
2021/05/09 13:08:45;;;;;;;3.67;2.67;;;;;;;;;;5033127;28;20702;-70
2021/05/09 13:11:30;;;;;;;4.07;2.67;;;;;;;;;;5032627;28;20261;-69
2021/05/09 13:14:14;;;;;;;3.53;2.83;;;;;;;;;;5021173;28;20258;-71
2021/05/09 13:17:00;;;;;;;4.53;2.67;;;;;;;;;;5013219;28;20223;-71
2021/05/09 13:19:45;;;;;;;7.77;3.30;;;;;;;;;;5026194;28;20196;-72
2021/05/09 13:22:29;;;;;;;3.13;2.60;;;;;;;;;;5028396;28;20202;-71
2021/05/09 13:25:14;;;;;;;3.70;2.50;;;;;;;;;;5019148;28;20568;-68
2021/05/09 13:27:58;;;;;;;3.07;2.77;;;;;;;;;;5026958;28;20239;-69
2021/05/09 13:30:43;;;;;;;3.10;2.90;;;;;;;;;;5032095;28;20211;-69
2021/05/09 13:33:29;;;;;;;4.17;3.10;;;;;;;;;;5032875;28;20679;-70
2021/05/09 13:36:13;;;;;;;2.80;2.60;;;;;;;;;;5032564;28;20225;-70
2021/05/09 13:38:58;;;;;;;4.37;2.80;;;;;;;;;;5031701;28;20247;-70
2021/05/09 13:41:45;;;;;;;2.50;2.40;;;;;;;;;;5032627;28;20715;-70
2021/05/09 13:44:29;;;;;;;2.93;2.70;;;;;;;;;;5012991;28;20206;-69
2021/05/09 13:47:14;;;;;;;2.43;2.23;;;;;;;;;;5012898;28;20237;-70
2021/05/09 13:49:59;;;;;;;2.77;2.57;;;;;;;;;;5012559;28;20393;-70
2021/05/09 13:52:44;;;;;;;3.93;2.60;;;;;;;;;;5019740;28;20562;-69
2021/05/09 13:55:28;;;;;;;2.80;2.53;;;;;;;;;;5032120;28;20222;-70
2021/05/09 13:58:13;;;;;;;3.17;2.63;;;;;;;;;;5032557;28;20228;-71
2021/05/09 14:00:58;;;;;;;3.10;2.80;;;;;;;;;;5031828;28;20202;-70
2021/05/09 14:03:47;;;;;;;2.60;2.40;;;;;;;;;;5032163;28;20272;-70
2021/05/09 14:06:35;;;;;;;4.80;2.60;;;;;;;;;;5032182;28;20230;-70
2021/05/09 14:09:19;;;;;;;4.27;2.27;;;;;;;;;;5032082;28;20198;-71
2021/05/09 14:12:07;;;;;;;3.75;2.53;;;;;;;;;;5031466;28;20429;-71
2021/05/09 14:14:55;;;;;;;2.70;2.50;;;;;;;;;;5031646;28;20210;-71
2021/05/09 14:17:39;;;;;;;5.50;2.90;;;;;;;;;;5031457;28;20664;-71
2021/05/09 14:20:24;;;;;;;3.67;2.67;;;;;;;;;;5020899;28;20213;-71
2021/05/09 14:23:09;;;;;;;5.60;2.70;;;;;;;;;;5030983;28;20289;-71
2021/05/09 14:25:54;;;;;;;5.13;2.70;;;;;;;;;;5030926;28;20225;-70
2021/05/09 14:28:39;;;;;;;5.57;2.83;;;;;;;;;;5031204;28;20217;-70
2021/05/09 14:31:24;;;;;;;3.53;2.67;;;;;;;;;;5015853;28;20222;-70
2021/05/09 14:34:10;;;;;;;9.40;7.93;;;;;;;;;;5031959;28;20249;-70
2021/05/09 14:36:55;;;;;;;3.50;3.10;;;;;;;;;;5031664;28;20290;-70
2021/05/09 14:39:42;;;;;;;3.23;2.73;;;;;;;;;;5031545;28;20202;-70
2021/05/09 14:42:33;;;;;;;6.17;2.60;;;;;;;;;;5031489;28;20201;-71
2021/05/09 14:45:18;;;;;;;5.30;2.70;;;;;;;;;;5031455;28;20675;-70
2021/05/09 14:48:04;;;;;;;4.40;2.57;;;;;;;;;;5031447;28;20229;-71
2021/05/09 14:50:51;;;;;;;7.03;3.03;;;;;;;;;;5031338;28;20253;-69
2021/05/09 14:53:38;;;;;;;3.70;2.70;;;;;;;;;;5046157;28;20281;-70
2021/05/09 14:56:24;;;;;;;2.83;2.53;;;;;;;;;;5011741;28;20229;-73
2021/05/09 14:59:08;;;;;;;3.87;2.80;;;;;;;;;;5011730;28;20198;-71
2021/05/09 15:01:53;;;;;;;5.15;2.78;;;;;;;;;;5031142;28;20446;-72
2021/05/09 15:04:38;;;;;;;3.00;2.73;;;;;;;;;;5018416;28;20252;-72
2021/05/09 15:07:22;;;;;;;3.37;2.40;;;;;;;;;;5030745;28;20259;-72
2021/05/09 15:10:07;;;;;;;3.40;2.80;;;;;;;;;;5030235;28;20204;-72
2021/05/09 15:12:52;;;;;;;4.67;2.50;;;;;;;;;;5030993;28;20309;-71
2021/05/09 15:15:39;;;;;;;2.87;2.67;;;;;;;;;;5030999;28;20222;-72
2021/05/09 15:18:24;;;;;;;4.20;3.70;;;;;;;;;;5030979;28;20260;-72
2021/05/09 15:21:09;;;;;;;3.63;2.80;;;;;;;;;;5030395;28;20233;-71
2021/05/09 15:23:59;;;;;;;4.03;2.80;;;;;;;;;;5022467;28;20214;-71
2021/05/09 15:26:44;;;;;;;4.27;2.40;;;;;;;;;;5026038;28;20789;-71
2021/05/09 15:29:30;;;;;;;3.10;2.70;;;;;;;;;;5015011;28;20474;-71
2021/05/09 15:32:14;;;;;;;2.70;2.50;;;;;;;;;;5020229;28;20570;-70
2021/05/09 15:34:59;;;;;;;2.77;2.43;;;;;;;;;;5029954;28;20348;-70
2021/05/09 15:37:44;;;;;;;7.27;3.30;;;;;;;;;;5030780;28;20209;-70
2021/05/09 15:40:28;;;;;;;5.03;2.80;;;;;;;;;;5030027;28;20248;-70
2021/05/09 15:43:12;;;;;;;2.67;2.47;;;;;;;;;;5030810;28;20209;-70
2021/05/09 15:45:58;;;;;;;4.77;2.90;;;;;;;;;;5030567;28;20229;-70
2021/05/09 15:48:42;;;;;;;3.63;3.20;;;;;;;;;;5030736;28;20728;-70
2021/05/09 15:51:27;;;;;;;3.45;2.80;;;;;;;;;;5029438;28;20410;-70
2021/05/09 15:54:11;;;;;;;3.10;2.90;;;;;;;;;;5029905;28;20248;-70
2021/05/09 15:56:55;;;;;;;4.93;3.00;;;;;;;;;;5030661;28;20280;-70
2021/05/09 15:59:40;;;;;;;3.47;2.93;;;;;;;;;;5030197;28;20241;-70
2021/05/09 16:02:25;;;;;;;6.27;3.00;;;;;;;;;;5030538;28;20221;-70
2021/05/09 16:05:10;;;;;;;5.33;2.93;;;;;;;;;;5030670;28;20700;-69
2021/05/09 16:07:57;;;;;;;3.27;2.97;;;;;;;;;;5030234;28;20233;-69
2021/05/09 16:10:42;;;;;;;5.43;4.23;;;;;;;;;;5010368;28;20258;-70
2021/05/09 16:13:26;;;;;;;7.20;4.70;;;;;;;;;;5030078;28;20523;-69
2021/05/09 16:16:13;;;;;;;4.30;3.40;;;;;;;;;;5030381;28;20221;-70
2021/05/09 16:18:59;;;;;;;4.03;3.23;;;;;;;;;;5030496;28;20213;-73
2021/05/09 16:21:44;;;;;;;4.67;3.30;;;;;;;;;;5030309;28;20248;-73
2021/05/09 16:24:29;;;;;;;5.57;3.23;;;;;;;;;;5030185;28;20584;-70
2021/05/09 16:27:13;;;;;;;4.83;2.80;;;;;;;;;;5030495;28;20261;-71
2021/05/09 16:29:57;;;;;;;3.03;2.83;;;;;;;;;;5030293;28;20290;-70
2021/05/09 16:32:44;;;;;;;3.30;3.00;;;;;;;;;;5028043;28;20697;-68
2021/05/09 16:35:30;;;;;;;4.53;2.80;;;;;;;;;;5014576;28;20230;-70